sensor_id;sensor_type;location;lat;lon;timestamp;pressure;altitude;pressure_sealevel;temperature;humidity
69247;BME280;56358;56.328;43.992;2023-09-19T00:00:27;101194.91;;;9.81;72.76
69247;BME280;56358;56.328;43.992;2023-09-19T00:02:28;101222.06;;;9.89;72.90
69247;BME280;56358;56.328;43.992;2023-09-19T00:04:31;101181.16;;;9.59;73.16
69247;BME280;56358;56.328;43.992;2023-09-19T00:06:32;101145.03;;;9.37;73.54
69247;BME280;56358;56.328;43.992;2023-09-19T00:08:36;101218.16;;;9.81;73.13
69247;BME280;56358;56.328;43.992;2023-09-19T00:10:36;101216.66;;;9.77;73.29
69247;BME280;56358;56.328;43.992;2023-09-19T00:12:43;101222.28;;;9.72;73.21
69247;BME280;56358;56.328;43.992;2023-09-19T00:14:43;101183.34;;;9.52;73.31
69247;BME280;56358;56.328;43.992;2023-09-19T00:16:44;101133.75;;;9.17;73.52
69247;BME280;56358;56.328;43.992;2023-09-19T00:18:47;101189.66;;;9.51;73.88
69247;BME280;56358;56.328;43.992;2023-09-19T00:20:49;101220.06;;;9.64;73.75
69247;BME280;56358;56.328;43.992;2023-09-19T00:22:51;101222.19;;;9.59;74.35
69247;BME280;56358;56.328;43.992;2023-09-19T00:24:53;101223.72;;;9.63;74.20
69247;BME280;56358;56.328;43.992;2023-09-19T00:26:55;101222.00;;;9.62;74.42
69247;BME280;56358;56.328;43.992;2023-09-19T00:28:56;101218.94;;;9.54;74.76
69247;BME280;56358;56.328;43.992;2023-09-19T00:30:57;101232.81;;;9.61;74.79
69247;BME280;56358;56.328;43.992;2023-09-19T00:33:02;101239.09;;;9.60;74.82
69247;BME280;56358;56.328;43.992;2023-09-19T00:35:06;101229.16;;;9.62;74.49
69247;BME280;56358;56.328;43.992;2023-09-19T00:37:09;101234.59;;;9.60;75.08
69247;BME280;56358;56.328;43.992;2023-09-19T00:39:11;101231.28;;;9.56;74.76
69247;BME280;56358;56.328;43.992;2023-09-19T00:41:12;101221.63;;;9.54;74.71
69247;BME280;56358;56.328;43.992;2023-09-19T00:43:13;101104.78;;;8.81;74.63
69247;BME280;56358;56.328;43.992;2023-09-19T00:45:16;101240.06;;;9.59;75.01
69247;BME280;56358;56.328;43.992;2023-09-19T00:47:18;101241.09;;;9.56;75.09
69247;BME280;56358;56.328;43.992;2023-09-19T00:49:19;101248.97;;;9.59;75.07
69247;BME280;56358;56.328;43.992;2023-09-19T00:51:22;101243.88;;;9.54;75.33
69247;BME280;56358;56.328;43.992;2023-09-19T00:53:25;101243.13;;;9.52;75.34
69247;BME280;56358;56.328;43.992;2023-09-19T00:55:28;101162.97;;;9.06;75.30
69247;BME280;56358;56.328;43.992;2023-09-19T00:57:30;101243.41;;;9.48;75.15
69247;BME280;56358;56.328;43.992;2023-09-19T00:59:32;101207.69;;;9.18;75.54
69247;BME280;56358;56.328;43.992;2023-09-19T01:01:33;101250.75;;;9.44;75.59
69247;BME280;56358;56.328;43.992;2023-09-19T01:03:34;101250.94;;;9.41;75.85
69247;BME280;56358;56.328;43.992;2023-09-19T01:05:36;101214.97;;;9.16;76.23
69247;BME280;56358;56.328;43.992;2023-09-19T01:07:37;101247.56;;;9.23;76.61
69247;BME280;56358;56.328;43.992;2023-09-19T01:09:45;101249.47;;;9.21;76.67
69247;BME280;56358;56.328;43.992;2023-09-19T01:11:50;101255.00;;;9.18;77.07
69247;BME280;56358;56.328;43.992;2023-09-19T01:13:58;101186.41;;;8.72;77.48
69247;BME280;56358;56.328;43.992;2023-09-19T01:16:14;101230.69;;;8.92;77.17
69247;BME280;56358;56.328;43.992;2023-09-19T01:20:39;101195.81;;;8.63;78.07
69247;BME280;56358;56.328;43.992;2023-09-19T01:23:05;101251.88;;;8.95;77.69
69247;BME280;56358;56.328;43.992;2023-09-19T01:30:14;101258.63;;;8.70;79.09
69247;BME280;56358;56.328;43.992;2023-09-19T01:32:19;101242.09;;;8.64;78.99
69247;BME280;56358;56.328;43.992;2023-09-19T01:34:25;101255.91;;;8.56;79.47
69247;BME280;56358;56.328;43.992;2023-09-19T01:36:28;101257.38;;;8.62;79.85
69247;BME280;56358;56.328;43.992;2023-09-19T01:38:30;101263.66;;;8.61;80.11
69247;BME280;56358;56.328;43.992;2023-09-19T01:40:30;101264.97;;;8.53;79.85
69247;BME280;56358;56.328;43.992;2023-09-19T01:42:54;101266.84;;;8.51;79.92
69247;BME280;56358;56.328;43.992;2023-09-19T01:45:04;101223.13;;;8.20;80.06
69247;BME280;56358;56.328;43.992;2023-09-19T01:47:33;101259.22;;;8.45;80.22
69247;BME280;56358;56.328;43.992;2023-09-19T01:49:59;101282.63;;;8.40;80.79
69247;BME280;56358;56.328;43.992;2023-09-19T01:52:11;101272.06;;;8.37;81.00
69247;BME280;56358;56.328;43.992;2023-09-19T01:54:24;101252.63;;;8.19;80.93
69247;BME280;56358;56.328;43.992;2023-09-19T01:56:48;101273.19;;;8.33;81.11
69247;BME280;56358;56.328;43.992;2023-09-19T01:58:53;101271.56;;;8.30;81.47
69247;BME280;56358;56.328;43.992;2023-09-19T02:00:58;101254.59;;;8.15;81.12
69247;BME280;56358;56.328;43.992;2023-09-19T02:03:00;101275.34;;;8.26;80.96
69247;BME280;56358;56.328;43.992;2023-09-19T02:05:06;101284.47;;;8.22;80.94
69247;BME280;56358;56.328;43.992;2023-09-19T02:07:07;101278.53;;;8.17;81.27
69247;BME280;56358;56.328;43.992;2023-09-19T02:09:09;101281.72;;;8.23;81.38
69247;BME280;56358;56.328;43.992;2023-09-19T02:11:09;101279.56;;;8.14;81.08
69247;BME280;56358;56.328;43.992;2023-09-19T02:13:11;101284.41;;;8.23;81.30
69247;BME280;56358;56.328;43.992;2023-09-19T02:15:13;101297.69;;;8.25;81.05
69247;BME280;56358;56.328;43.992;2023-09-19T02:17:16;101289.69;;;8.25;80.66
69247;BME280;56358;56.328;43.992;2023-09-19T02:19:17;101295.09;;;8.23;80.41
69247;BME280;56358;56.328;43.992;2023-09-19T02:21:18;101297.84;;;8.22;80.35
69247;BME280;56358;56.328;43.992;2023-09-19T02:23:20;101294.41;;;8.20;80.38
69247;BME280;56358;56.328;43.992;2023-09-19T02:25:20;101265.94;;;8.03;80.35
69247;BME280;56358;56.328;43.992;2023-09-19T02:27:21;101294.66;;;8.15;80.53
69247;BME280;56358;56.328;43.992;2023-09-19T02:29:22;101237.22;;;7.75;80.31
69247;BME280;56358;56.328;43.992;2023-09-19T02:31:22;101300.50;;;8.06;80.62
69247;BME280;56358;56.328;43.992;2023-09-19T02:33:23;101266.09;;;7.84;80.73
69247;BME280;56358;56.328;43.992;2023-09-19T02:35:24;101277.38;;;7.89;80.62
69247;BME280;56358;56.328;43.992;2023-09-19T02:37:26;101303.75;;;7.95;80.87
69247;BME280;56358;56.328;43.992;2023-09-19T02:39:27;101306.59;;;7.92;81.11
69247;BME280;56358;56.328;43.992;2023-09-19T02:41:28;101311.13;;;7.90;80.97
69247;BME280;56358;56.328;43.992;2023-09-19T02:43:29;101324.56;;;7.88;80.85
69247;BME280;56358;56.328;43.992;2023-09-19T02:45:30;101314.81;;;7.87;81.05
69247;BME280;56358;56.328;43.992;2023-09-19T02:47:31;101320.16;;;7.87;80.72
69247;BME280;56358;56.328;43.992;2023-09-19T02:49:32;101321.19;;;7.85;80.41
69247;BME280;56358;56.328;43.992;2023-09-19T02:51:33;101301.28;;;7.75;80.27
69247;BME280;56358;56.328;43.992;2023-09-19T02:53:34;101226.31;;;7.28;80.31
69247;BME280;56358;56.328;43.992;2023-09-19T02:55:36;101315.63;;;7.89;80.32
69247;BME280;56358;56.328;43.992;2023-09-19T02:57:38;101326.47;;;7.86;79.93
69247;BME280;56358;56.328;43.992;2023-09-19T02:59:41;101330.00;;;7.87;79.77
69247;BME280;56358;56.328;43.992;2023-09-19T03:01:44;101333.78;;;7.83;79.52
69247;BME280;56358;56.328;43.992;2023-09-19T03:03:46;101335.59;;;7.82;79.50
69247;BME280;56358;56.328;43.992;2023-09-19T03:05:47;101339.97;;;7.83;79.65
69247;BME280;56358;56.328;43.992;2023-09-19T03:07:48;101302.53;;;7.67;79.53
69247;BME280;56358;56.328;43.992;2023-09-19T03:09:51;101272.19;;;7.52;79.18
69247;BME280;56358;56.328;43.992;2023-09-19T03:11:53;101330.84;;;7.87;78.76
69247;BME280;56358;56.328;43.992;2023-09-19T03:13:55;101337.81;;;7.90;78.85
69247;BME280;56358;56.328;43.992;2023-09-19T03:15:55;101332.44;;;7.92;78.07
69247;BME280;56358;56.328;43.992;2023-09-19T03:17:56;101329.91;;;7.88;77.92
69247;BME280;56358;56.328;43.992;2023-09-19T03:19:58;101337.50;;;7.96;77.73
69247;BME280;56358;56.328;43.992;2023-09-19T03:21:59;101344.59;;;7.97;77.42
69247;BME280;56358;56.328;43.992;2023-09-19T03:23:59;101326.91;;;7.95;76.36
69247;BME280;56358;56.328;43.992;2023-09-19T03:26:00;101346.06;;;8.03;76.42
69247;BME280;56358;56.328;43.992;2023-09-19T03:28:01;101337.03;;;8.05;76.66
69247;BME280;56358;56.328;43.992;2023-09-19T03:30:04;101340.63;;;8.04;76.24
69247;BME280;56358;56.328;43.992;2023-09-19T03:32:08;101334.44;;;8.04;76.38
69247;BME280;56358;56.328;43.992;2023-09-19T03:34:12;101340.72;;;8.03;76.32
69247;BME280;56358;56.328;43.992;2023-09-19T03:36:12;101339.78;;;8.04;76.68
69247;BME280;56358;56.328;43.992;2023-09-19T03:38:13;101338.03;;;8.03;76.29
69247;BME280;56358;56.328;43.992;2023-09-19T03:40:14;101350.47;;;8.04;75.93
69247;BME280;56358;56.328;43.992;2023-09-19T03:42:16;101336.22;;;8.03;76.16
69247;BME280;56358;56.328;43.992;2023-09-19T03:44:16;101254.03;;;7.59;75.58
69247;BME280;56358;56.328;43.992;2023-09-19T03:46:17;101290.53;;;7.76;75.69
69247;BME280;56358;56.328;43.992;2023-09-19T03:48:18;101340.41;;;8.09;75.28
69247;BME280;56358;56.328;43.992;2023-09-19T03:50:19;101348.25;;;8.12;74.35
69247;BME280;56358;56.328;43.992;2023-09-19T03:52:20;101353.41;;;8.15;72.19
69247;BME280;56358;56.328;43.992;2023-09-19T03:54:21;101343.59;;;8.16;71.96
69247;BME280;56358;56.328;43.992;2023-09-19T03:56:21;101348.09;;;8.31;70.34
69247;BME280;56358;56.328;43.992;2023-09-19T03:58:22;101282.91;;;8.02;69.60
69247;BME280;56358;56.328;43.992;2023-09-19T04:00:23;101361.44;;;8.49;69.24
69247;BME280;56358;56.328;43.992;2023-09-19T04:02:26;101349.78;;;8.50;68.69
69247;BME280;56358;56.328;43.992;2023-09-19T04:04:33;101354.44;;;8.62;68.25
69247;BME280;56358;56.328;43.992;2023-09-19T04:06:34;101355.25;;;8.64;67.00
69247;BME280;56358;56.328;43.992;2023-09-19T04:08:38;101266.56;;;8.24;66.42
69247;BME280;56358;56.328;43.992;2023-09-19T04:10:39;101344.88;;;8.74;66.78
69247;BME280;56358;56.328;43.992;2023-09-19T04:12:40;101350.84;;;8.79;66.82
69247;BME280;56358;56.328;43.992;2023-09-19T04:14:40;101355.66;;;8.88;66.76
69247;BME280;56358;56.328;43.992;2023-09-19T04:16:41;101242.25;;;8.29;66.51
69247;BME280;56358;56.328;43.992;2023-09-19T04:18:42;101353.59;;;8.94;66.29
69247;BME280;56358;56.328;43.992;2023-09-19T04:20:48;101358.94;;;8.94;66.33
69247;BME280;56358;56.328;43.992;2023-09-19T04:22:49;101356.78;;;9.00;66.38
69247;BME280;56358;56.328;43.992;2023-09-19T04:24:50;101284.44;;;8.55;66.08
69247;BME280;56358;56.328;43.992;2023-09-19T04:26:51;101347.22;;;8.96;67.01
69247;BME280;56358;56.328;43.992;2023-09-19T04:28:53;101341.34;;;8.89;66.26
69247;BME280;56358;56.328;43.992;2023-09-19T04:30:53;101353.84;;;9.05;66.30
69247;BME280;56358;56.328;43.992;2023-09-19T04:32:56;101361.66;;;9.08;66.40
69247;BME280;56358;56.328;43.992;2023-09-19T04:34:56;101354.44;;;9.10;65.63
69247;BME280;56358;56.328;43.992;2023-09-19T04:37:00;101363.06;;;9.15;65.37
69247;BME280;56358;56.328;43.992;2023-09-19T04:39:03;101354.00;;;9.18;65.33
69247;BME280;56358;56.328;43.992;2023-09-19T04:41:07;101328.81;;;9.06;65.19
69247;BME280;56358;56.328;43.992;2023-09-19T04:43:08;101328.81;;;9.06;65.15
69247;BME280;56358;56.328;43.992;2023-09-19T04:45:09;101346.91;;;9.17;65.13
69247;BME280;56358;56.328;43.992;2023-09-19T04:47:10;101361.22;;;9.32;64.20
69247;BME280;56358;56.328;43.992;2023-09-19T04:49:12;101318.63;;;9.13;64.32
69247;BME280;56358;56.328;43.992;2023-09-19T04:51:13;101365.91;;;9.43;63.60
69247;BME280;56358;56.328;43.992;2023-09-19T04:53:15;101355.31;;;9.41;64.65
69247;BME280;56358;56.328;43.992;2023-09-19T04:55:17;101364.44;;;9.53;62.94
69247;BME280;56358;56.328;43.992;2023-09-19T04:57:20;101354.31;;;9.58;62.55
69247;BME280;56358;56.328;43.992;2023-09-19T04:59:21;101364.38;;;9.69;62.30
69247;BME280;56358;56.328;43.992;2023-09-19T05:01:21;101366.88;;;9.72;62.02
69247;BME280;56358;56.328;43.992;2023-09-19T05:03:23;101364.41;;;9.83;61.03
69247;BME280;56358;56.328;43.992;2023-09-19T05:05:24;101276.34;;;9.34;59.87
69247;BME280;56358;56.328;43.992;2023-09-19T05:07:25;101366.13;;;9.84;59.82
69247;BME280;56358;56.328;43.992;2023-09-19T05:09:26;101352.84;;;9.97;60.23
69247;BME280;56358;56.328;43.992;2023-09-19T05:11:27;101369.31;;;10.05;59.19
69247;BME280;56358;56.328;43.992;2023-09-19T05:13:30;101362.16;;;10.06;58.52
69247;BME280;56358;56.328;43.992;2023-09-19T05:15:31;101379.19;;;10.19;58.73
69247;BME280;56358;56.328;43.992;2023-09-19T05:17:32;101361.97;;;10.23;58.30
69247;BME280;56358;56.328;43.992;2023-09-19T05:19:34;101379.88;;;10.37;58.59
69247;BME280;56358;56.328;43.992;2023-09-19T05:21:35;101390.28;;;10.42;57.95
69247;BME280;56358;56.328;43.992;2023-09-19T05:23:36;101352.47;;;10.32;57.97
69247;BME280;56358;56.328;43.992;2023-09-19T05:25:38;101372.69;;;10.52;58.04
69247;BME280;56358;56.328;43.992;2023-09-19T05:27:39;101373.63;;;10.51;57.54
69247;BME280;56358;56.328;43.992;2023-09-19T05:29:40;101386.66;;;10.57;57.25
69247;BME280;56358;56.328;43.992;2023-09-19T05:31:42;101342.47;;;10.36;56.98
69247;BME280;56358;56.328;43.992;2023-09-19T05:33:43;101386.06;;;10.67;57.41
69247;BME280;56358;56.328;43.992;2023-09-19T05:35:44;101381.56;;;10.67;58.04
69247;BME280;56358;56.328;43.992;2023-09-19T05:37:48;101381.06;;;10.75;57.34
69247;BME280;56358;56.328;43.992;2023-09-19T05:39:51;101391.53;;;10.80;57.63
69247;BME280;56358;56.328;43.992;2023-09-19T05:41:51;101383.84;;;10.88;56.92
69247;BME280;56358;56.328;43.992;2023-09-19T05:43:52;101378.72;;;10.98;56.56
69247;BME280;56358;56.328;43.992;2023-09-19T05:45:53;101376.41;;;11.06;56.96
69247;BME280;56358;56.328;43.992;2023-09-19T05:48:10;101376.00;;;11.12;56.17
69247;BME280;56358;56.328;43.992;2023-09-19T05:50:16;101376.34;;;11.20;55.62
69247;BME280;56358;56.328;43.992;2023-09-19T05:52:17;101364.00;;;11.18;55.59
69247;BME280;56358;56.328;43.992;2023-09-19T05:54:18;101373.66;;;11.20;54.86
69247;BME280;56358;56.328;43.992;2023-09-19T05:56:20;101372.41;;;11.26;55.28
69247;BME280;56358;56.328;43.992;2023-09-19T05:58:21;101376.47;;;11.19;54.48
69247;BME280;56358;56.328;43.992;2023-09-19T06:00:22;101365.22;;;11.27;54.80
69247;BME280;56358;56.328;43.992;2023-09-19T06:02:23;101352.97;;;11.22;54.43
69247;BME280;56358;56.328;43.992;2023-09-19T06:04:27;101368.13;;;11.36;54.02
69247;BME280;56358;56.328;43.992;2023-09-19T06:06:28;101350.09;;;11.38;54.33
69247;BME280;56358;56.328;43.992;2023-09-19T06:08:28;101377.66;;;11.55;54.44
69247;BME280;56358;56.328;43.992;2023-09-19T06:10:30;101363.25;;;11.56;54.30
69247;BME280;56358;56.328;43.992;2023-09-19T06:12:32;101346.94;;;11.59;53.35
69247;BME280;56358;56.328;43.992;2023-09-19T06:14:34;101380.25;;;11.82;54.34
69247;BME280;56358;56.328;43.992;2023-09-19T06:16:34;101373.25;;;11.80;53.82
69247;BME280;56358;56.328;43.992;2023-09-19T06:18:35;101378.13;;;11.87;53.58
69247;BME280;56358;56.328;43.992;2023-09-19T06:20:36;101367.25;;;11.89;53.13
69247;BME280;56358;56.328;43.992;2023-09-19T06:22:37;101378.47;;;11.96;52.50
69247;BME280;56358;56.328;43.992;2023-09-19T06:24:38;101367.41;;;12.00;51.88
69247;BME280;56358;56.328;43.992;2023-09-19T06:26:39;101350.06;;;11.91;51.24
69247;BME280;56358;56.328;43.992;2023-09-19T06:28:40;101366.56;;;12.13;51.37
69247;BME280;56358;56.328;43.992;2023-09-19T06:30:41;101377.06;;;12.16;51.97
69247;BME280;56358;56.328;43.992;2023-09-19T06:32:42;101366.31;;;12.16;52.25
69247;BME280;56358;56.328;43.992;2023-09-19T06:34:45;101341.41;;;12.01;51.99
69247;BME280;56358;56.328;43.992;2023-09-19T06:36:46;101345.59;;;12.05;51.60
69247;BME280;56358;56.328;43.992;2023-09-19T06:38:47;101374.94;;;12.21;51.82
69247;BME280;56358;56.328;43.992;2023-09-19T06:40:51;101387.28;;;12.23;51.39
69247;BME280;56358;56.328;43.992;2023-09-19T06:42:52;101350.09;;;12.17;50.65
69247;BME280;56358;56.328;43.992;2023-09-19T06:44:54;101362.34;;;12.34;51.45
69247;BME280;56358;56.328;43.992;2023-09-19T06:46:55;101322.25;;;12.05;50.81
69247;BME280;56358;56.328;43.992;2023-09-19T06:48:56;101372.44;;;12.44;50.93
69247;BME280;56358;56.328;43.992;2023-09-19T06:50:56;101374.28;;;12.43;50.98
69247;BME280;56358;56.328;43.992;2023-09-19T06:52:59;101363.28;;;12.46;51.38
69247;BME280;56358;56.328;43.992;2023-09-19T06:55:00;101357.25;;;12.43;51.34
69247;BME280;56358;56.328;43.992;2023-09-19T06:57:05;101371.91;;;12.51;51.55
69247;BME280;56358;56.328;43.992;2023-09-19T06:59:06;101371.91;;;12.51;50.84
69247;BME280;56358;56.328;43.992;2023-09-19T07:01:07;101364.97;;;12.60;50.48
69247;BME280;56358;56.328;43.992;2023-09-19T07:03:08;101363.78;;;12.64;50.00
69247;BME280;56358;56.328;43.992;2023-09-19T07:05:11;101371.72;;;12.79;49.63
69247;BME280;56358;56.328;43.992;2023-09-19T07:07:12;101372.34;;;12.82;49.27
69247;BME280;56358;56.328;43.992;2023-09-19T07:09:14;101361.03;;;12.90;49.50
69247;BME280;56358;56.328;43.992;2023-09-19T07:11:14;101360.91;;;12.91;49.14
69247;BME280;56358;56.328;43.992;2023-09-19T07:13:16;101374.53;;;13.01;49.57
69247;BME280;56358;56.328;43.992;2023-09-19T07:15:18;101367.94;;;13.05;49.50
69247;BME280;56358;56.328;43.992;2023-09-19T07:17:18;101340.38;;;13.02;49.56
69247;BME280;56358;56.328;43.992;2023-09-19T07:19:20;101381.56;;;13.15;49.81
69247;BME280;56358;56.328;43.992;2023-09-19T07:21:20;101356.16;;;13.19;49.37
69247;BME280;56358;56.328;43.992;2023-09-19T07:23:21;101353.13;;;13.24;48.57
69247;BME280;56358;56.328;43.992;2023-09-19T07:25:23;101357.06;;;13.31;48.43
69247;BME280;56358;56.328;43.992;2023-09-19T07:27:24;101378.50;;;13.33;48.65
69247;BME280;56358;56.328;43.992;2023-09-19T07:29:25;101295.00;;;12.97;48.15
69247;BME280;56358;56.328;43.992;2023-09-19T07:31:26;101351.41;;;13.23;48.74
69247;BME280;56358;56.328;43.992;2023-09-19T07:33:27;101363.03;;;13.23;48.13
69247;BME280;56358;56.328;43.992;2023-09-19T07:35:28;101352.59;;;13.19;49.06
69247;BME280;56358;56.328;43.992;2023-09-19T07:37:30;101347.56;;;13.14;48.97
69247;BME280;56358;56.328;43.992;2023-09-19T07:39:33;101240.22;;;12.50;48.48
69247;BME280;56358;56.328;43.992;2023-09-19T07:41:34;101363.25;;;13.20;48.21
69247;BME280;56358;56.328;43.992;2023-09-19T07:43:37;101364.97;;;13.21;46.86
69247;BME280;56358;56.328;43.992;2023-09-19T07:45:41;101359.47;;;13.23;47.49
69247;BME280;56358;56.328;43.992;2023-09-19T07:47:45;101353.47;;;13.19;47.33
69247;BME280;56358;56.328;43.992;2023-09-19T07:49:47;101312.34;;;12.93;47.03
69247;BME280;56358;56.328;43.992;2023-09-19T07:51:48;101365.38;;;13.28;47.37
69247;BME280;56358;56.328;43.992;2023-09-19T07:53:49;101336.81;;;13.14;47.48
69247;BME280;56358;56.328;43.992;2023-09-19T07:55:49;101353.81;;;13.39;47.29
69247;BME280;56358;56.328;43.992;2023-09-19T07:57:50;101272.22;;;12.90;45.74
69247;BME280;56358;56.328;43.992;2023-09-19T07:59:51;101343.28;;;13.36;46.37
69247;BME280;56358;56.328;43.992;2023-09-19T08:01:52;101358.88;;;13.44;46.29
69247;BME280;56358;56.328;43.992;2023-09-19T08:03:53;101370.25;;;13.47;46.16
69247;BME280;56358;56.328;43.992;2023-09-19T08:05:56;101361.97;;;13.50;45.97
69247;BME280;56358;56.328;43.992;2023-09-19T08:07:58;101349.97;;;13.54;45.79
69247;BME280;56358;56.328;43.992;2023-09-19T08:09:59;101355.00;;;13.59;45.56
69247;BME280;56358;56.328;43.992;2023-09-19T08:12:00;101361.97;;;13.62;45.83
69247;BME280;56358;56.328;43.992;2023-09-19T08:14:05;101351.31;;;13.60;45.39
69247;BME280;56358;56.328;43.992;2023-09-19T08:16:10;101292.53;;;13.30;46.10
69247;BME280;56358;56.328;43.992;2023-09-19T08:18:10;101354.28;;;13.68;46.34
69247;BME280;56358;56.328;43.992;2023-09-19T08:20:14;101331.63;;;13.71;46.16
69247;BME280;56358;56.328;43.992;2023-09-19T08:22:20;101349.53;;;13.83;46.49
69247;BME280;56358;56.328;43.992;2023-09-19T08:24:21;101339.13;;;13.90;46.06
69247;BME280;56358;56.328;43.992;2023-09-19T08:26:22;101337.06;;;13.94;45.31
69247;BME280;56358;56.328;43.992;2023-09-19T08:28:24;101338.16;;;13.91;44.78
69247;BME280;56358;56.328;43.992;2023-09-19T08:30:25;101336.09;;;13.95;44.49
69247;BME280;56358;56.328;43.992;2023-09-19T08:32:28;101313.66;;;13.83;44.75
69247;BME280;56358;56.328;43.992;2023-09-19T08:34:29;101281.03;;;13.63;44.55
69247;BME280;56358;56.328;43.992;2023-09-19T08:36:31;101253.38;;;13.61;44.88
69247;BME280;56358;56.328;43.992;2023-09-19T08:38:34;101349.81;;;14.14;45.48
69247;BME280;56358;56.328;43.992;2023-09-19T08:40:38;101268.56;;;13.85;45.05
69247;BME280;56358;56.328;43.992;2023-09-19T08:42:55;101343.91;;;14.54;44.62
69247;BME280;56358;56.328;43.992;2023-09-19T08:44:57;101341.56;;;14.95;42.61
69247;BME280;56358;56.328;43.992;2023-09-19T08:49:24;101332.75;;;16.10;40.49
69247;BME280;56358;56.328;43.992;2023-09-19T08:51:42;101289.81;;;16.27;39.05
69247;BME280;56358;56.328;43.992;2023-09-19T08:54:03;101333.75;;;17.00;38.21
69247;BME280;56358;56.328;43.992;2023-09-19T08:56:10;101332.47;;;17.43;38.11
69247;BME280;56358;56.328;43.992;2023-09-19T08:58:13;101323.59;;;17.61;37.05
69247;BME280;56358;56.328;43.992;2023-09-19T09:00:16;101334.00;;;17.75;37.21
69247;BME280;56358;56.328;43.992;2023-09-19T09:02:18;101325.06;;;18.13;36.58
69247;BME280;56358;56.328;43.992;2023-09-19T09:04:20;101291.91;;;18.19;35.79
69247;BME280;56358;56.328;43.992;2023-09-19T09:06:23;101319.81;;;18.67;35.71
69247;BME280;56358;56.328;43.992;2023-09-19T09:08:25;101315.72;;;18.81;35.15
69247;BME280;56358;56.328;43.992;2023-09-19T09:10:27;101328.25;;;19.09;35.01
69247;BME280;56358;56.328;43.992;2023-09-19T09:12:29;101330.75;;;19.39;34.40
69247;BME280;56358;56.328;43.992;2023-09-19T09:14:30;101313.16;;;19.51;34.47
69247;BME280;56358;56.328;43.992;2023-09-19T09:16:31;101314.28;;;19.85;33.66
69247;BME280;56358;56.328;43.992;2023-09-19T09:18:31;101317.13;;;20.01;33.55
69247;BME280;56358;56.328;43.992;2023-09-19T09:20:32;101314.31;;;20.19;33.51
69247;BME280;56358;56.328;43.992;2023-09-19T09:22:33;101309.59;;;20.30;32.88
69247;BME280;56358;56.328;43.992;2023-09-19T09:24:34;101314.78;;;20.57;32.81
69247;BME280;56358;56.328;43.992;2023-09-19T09:26:42;101313.66;;;20.68;32.44
69247;BME280;56358;56.328;43.992;2023-09-19T09:28:46;101286.19;;;20.53;32.15
69247;BME280;56358;56.328;43.992;2023-09-19T09:30:49;101318.84;;;20.88;32.11
69247;BME280;56358;56.328;43.992;2023-09-19T09:33:07;101309.81;;;21.04;31.50
69247;BME280;56358;56.328;43.992;2023-09-19T09:35:08;101289.72;;;21.21;31.81
69247;BME280;56358;56.328;43.992;2023-09-19T09:37:17;101306.25;;;21.36;31.15
69247;BME280;56358;56.328;43.992;2023-09-19T09:39:31;101303.53;;;21.36;30.51
69247;BME280;56358;56.328;43.992;2023-09-19T09:41:36;101296.72;;;21.32;29.95
69247;BME280;56358;56.328;43.992;2023-09-19T09:43:39;101294.88;;;21.57;29.97
69247;BME280;56358;56.328;43.992;2023-09-19T09:45:42;101295.03;;;21.48;29.47
69247;BME280;56358;56.328;43.992;2023-09-19T09:47:49;101294.66;;;21.51;29.81
69247;BME280;56358;56.328;43.992;2023-09-19T09:49:58;101302.81;;;21.92;29.76
69247;BME280;56358;56.328;43.992;2023-09-19T09:52:07;101285.59;;;21.83;29.25
69247;BME280;56358;56.328;43.992;2023-09-19T09:54:18;101288.66;;;21.88;30.11
69247;BME280;56358;56.328;43.992;2023-09-19T09:56:21;101294.47;;;21.93;29.30
69247;BME280;56358;56.328;43.992;2023-09-19T09:58:23;101295.50;;;21.84;29.75
69247;BME280;56358;56.328;43.992;2023-09-19T10:00:29;101293.28;;;21.88;29.41
69247;BME280;56358;56.328;43.992;2023-09-19T10:02:43;101294.09;;;22.05;29.20
69247;BME280;56358;56.328;43.992;2023-09-19T10:04:46;101290.06;;;22.32;29.66
69247;BME280;56358;56.328;43.992;2023-09-19T10:06:59;101293.81;;;22.39;29.02
69247;BME280;56358;56.328;43.992;2023-09-19T10:09:09;101280.16;;;22.39;28.90
69247;BME280;56358;56.328;43.992;2023-09-19T10:11:21;101284.28;;;22.67;28.07
69247;BME280;56358;56.328;43.992;2023-09-19T10:13:31;101288.75;;;22.91;28.33
69247;BME280;56358;56.328;43.992;2023-09-19T10:15:34;101281.13;;;23.01;27.86
69247;BME280;56358;56.328;43.992;2023-09-19T10:17:37;101263.56;;;22.96;27.52
69247;BME280;56358;56.328;43.992;2023-09-19T10:19:46;101273.03;;;23.08;27.45
69247;BME280;56358;56.328;43.992;2023-09-19T10:21:54;101261.03;;;23.40;27.25
69247;BME280;56358;56.328;43.992;2023-09-19T10:23:58;101253.00;;;23.39;27.17
69247;BME280;56358;56.328;43.992;2023-09-19T10:26:01;101270.97;;;23.56;27.08
69247;BME280;56358;56.328;43.992;2023-09-19T10:28:02;101272.00;;;23.70;27.40
69247;BME280;56358;56.328;43.992;2023-09-19T10:30:08;101266.66;;;23.92;26.60
69247;BME280;56358;56.328;43.992;2023-09-19T10:32:13;101264.59;;;24.09;26.59
69247;BME280;56358;56.328;43.992;2023-09-19T10:34:20;101265.44;;;23.95;26.42
69247;BME280;56358;56.328;43.992;2023-09-19T10:36:24;101266.50;;;24.08;26.54
69247;BME280;56358;56.328;43.992;2023-09-19T10:38:27;101259.69;;;24.19;26.34
69247;BME280;56358;56.328;43.992;2023-09-19T10:40:29;101265.44;;;24.09;25.83
69247;BME280;56358;56.328;43.992;2023-09-19T10:42:33;101218.78;;;23.58;26.23
69247;BME280;56358;56.328;43.992;2023-09-19T10:44:38;101267.31;;;23.79;26.04
69247;BME280;56358;56.328;43.992;2023-09-19T10:46:43;101256.22;;;23.57;26.65
69247;BME280;56358;56.328;43.992;2023-09-19T10:48:45;101272.78;;;23.79;26.14